Terminal Aerodrome Forecast
Issued by NWS Buffalo, NY

Home | Current Version | Previous Version | Text Only | Print | Product List | Glossary On
Versions: 1 2 3 4 5 6 7 8 9 10 11 12 13 14 15 16 17 18 19 20 21 22 23 24 25
000
FTUS41 KBUF 271720
TAFART
TAF
KART 271720Z 2718/2818 25011KT P6SM VCSH OVC035
     FM272000 25012G18KT P6SM BKN070
     FM280000 23008KT P6SM BKN120
     FM280700 26006KT P6SM BKN250
     FM281400 25011KT P6SM BKN250=

USA.gov is the U.S. government's official web portal to all federal, state and local government web resources and services.